Time;durP1;ratioP1;P1;durP2;ratioP2;P2;SDS_P1;SDS_P2;PMS_P1;PMS_P2;Temp;Humidity;BMP_temperature;BMP_pressure;BME280_temperature;BME280_humidity;BME280_pressure;Samples;Min_cycle;Max_cycle;Signal;HPM_P1;HPM_P2
2022/01/26 00:07:36;;;;;;;63.75;30.67;;;4.40;99.90;;;4.48;67.13;99700.34;5017877;28;20115;-86
2022/01/26 00:10:03;;;;;;;67.15;30.50;;;4.40;99.90;;;4.46;66.62;99705.13;5001432;28;20036;-86
2022/01/26 00:12:29;;;;;;;62.50;28.10;;;4.40;99.90;;;4.38;66.89;99691.91;5014988;28;20044;-86
2022/01/26 00:14:55;;;;;;;50.65;28.15;;;4.40;99.90;;;4.42;67.00;99696.63;5018420;28;20549;-85
2022/01/26 00:17:24;;;;;;;54.40;28.50;;;4.30;99.90;;;4.36;66.86;99697.50;4997642;28;20118;-86
2022/01/26 00:20:00;;;;;;;57.13;28.10;;;4.30;99.90;;;4.30;67.41;99693.78;4999110;28;20041;-86
2022/01/26 00:22:55;;;;;;;49.20;27.05;;;4.30;99.90;;;4.32;67.63;99697.06;5001827;28;20067;-86
2022/01/26 00:27:55;;;;;;;54.55;26.30;;;4.30;99.90;;;4.47;67.11;99696.81;5017339;28;20055;-86
2022/01/26 00:38:42;;;;;;;56.53;28.08;;;4.30;99.90;;;4.41;66.96;99696.88;5034373;28;20120;-86
2022/01/26 00:41:13;;;;;;;56.65;29.30;;;4.30;99.90;;;4.40;66.92;99698.72;5020595;28;20459;-86
2022/01/26 00:43:48;;;;;;;60.42;30.60;;;4.40;99.90;;;4.41;66.92;99699.56;4998288;28;20136;-86
2022/01/26 00:46:14;;;;;;;56.70;28.10;;;4.30;99.90;;;4.40;67.39;99698.72;5018649;28;20041;-86
2022/01/26 00:48:41;;;;;;;57.35;27.80;;;4.40;99.90;;;4.32;67.64;99696.25;4996924;28;20820;-86
2022/01/26 00:51:07;;;;;;;57.28;30.00;;;4.40;99.90;;;4.35;67.52;99698.50;5014230;28;20043;-86
2022/01/26 00:53:38;;;;;;;54.63;26.67;;;4.40;99.90;;;4.35;67.41;99703.88;5030447;28;20053;-86
2022/01/26 00:56:04;;;;;;;52.50;26.70;;;4.40;99.90;;;4.40;67.23;99701.41;5015078;28;20044;-86
2022/01/26 00:58:31;;;;;;;49.05;22.80;;;4.40;99.90;;;4.40;67.22;99695.19;5015625;28;20124;-86
2022/01/26 01:00:59;;;;;;;46.13;24.10;;;4.40;99.90;;;4.34;67.63;99689.63;5013015;28;20044;-86
2022/01/26 01:03:25;;;;;;;48.92;24.48;;;4.40;99.90;;;4.35;67.36;99693.13;5015650;28;20041;-86
2022/01/26 01:06:00;;;;;;;40.00;22.02;;;4.40;99.90;;;4.41;66.86;99691.50;4990955;28;20044;-86
2022/01/26 01:08:26;;;;;;;44.90;23.40;;;4.40;99.90;;;4.46;67.27;99697.88;5017724;28;20036;-86
2022/01/26 01:10:54;;;;;;;39.50;21.70;;;4.40;99.90;;;4.43;66.91;99692.94;5015401;28;20045;-86
2022/01/26 01:13:24;;;;;;;42.95;23.08;;;4.40;99.90;;;4.44;67.14;99689.19;5029517;28;20072;-85
2022/01/26 01:15:51;;;;;;;37.55;21.98;;;4.40;99.90;;;4.41;66.80;99681.56;5013842;28;20040;-85
2022/01/26 01:18:31;;;;;;;38.60;23.30;;;4.40;99.90;;;4.42;67.38;99685.06;5001487;28;20052;-85
2022/01/26 01:21:22;;;;;;;48.33;24.30;;;4.40;99.90;;;4.41;67.04;99678.88;5021544;28;20036;-85
2022/01/26 01:31:28;;;;;;;58.10;30.88;;;4.40;99.90;;;4.48;67.17;99685.06;5017390;28;20132;-85
2022/01/26 01:33:55;;;;;;;56.22;28.10;;;4.50;99.90;;;4.46;66.63;99689.00;5021480;28;20044;-85
2022/01/26 01:36:23;;;;;;;60.65;29.40;;;4.50;99.90;;;4.39;66.92;99686.31;5034677;28;20478;-85
2022/01/26 01:38:49;;;;;;;57.00;27.58;;;4.50;99.90;;;4.41;66.77;99684.25;5019024;28;20500;-85
2022/01/26 01:41:14;;;;;;;52.85;26.90;;;4.40;99.90;;;4.39;67.17;99686.31;5017185;28;20500;-85
2022/01/26 01:43:41;;;;;;;52.63;27.70;;;4.50;99.90;;;4.44;66.59;99686.50;5014676;28;20442;-85
2022/01/26 01:46:07;;;;;;;52.00;26.77;;;4.40;99.90;;;4.47;66.71;99688.75;5022415;28;20045;-85
2022/01/26 01:48:33;;;;;;;42.65;22.92;;;4.50;99.90;;;4.41;67.00;99684.25;5016128;28;20040;-85
2022/01/26 01:51:05;;;;;;;50.70;27.40;;;4.50;99.90;;;4.41;67.30;99678.06;5003602;28;20088;-85
2022/01/26 01:53:39;;;;;;;;;;;4.50;99.90;;;4.31;67.32;99667.75;5014224;28;20048;-85
2022/01/26 01:56:07;;;;;;;52.38;25.83;;;4.40;99.90;;;4.34;67.82;99675.38;5018738;28;19993;-85
2022/01/26 01:58:33;;;;;;;56.53;26.67;;;4.40;99.90;;;4.37;67.19;99672.25;5007290;28;20039;-85
2022/01/26 02:00:59;;;;;;;46.58;23.73;;;4.40;99.90;;;4.45;67.14;99668.53;4999697;28;20040;-86
2022/01/26 02:03:25;;;;;;;45.83;23.92;;;4.40;99.90;;;4.47;66.76;99674.50;5006338;28;20503;-86
2022/01/26 02:05:51;;;;;;;42.55;24.35;;;4.50;99.90;;;4.47;66.88;99672.66;5030476;28;20041;-85
2022/01/26 02:08:17;;;;;;;48.30;25.70;;;4.50;99.90;;;4.50;66.92;99666.03;5001326;28;20033;-86
2022/01/26 02:10:44;;;;;;;49.75;22.02;;;4.50;99.90;;;4.47;66.75;99667.28;4998974;28;20117;-85
2022/01/26 02:13:24;;;;;;;38.45;20.58;;;4.50;99.90;;;4.42;67.06;99659.03;4999796;28;20465;-86
2022/01/26 02:53:47;;;;;;;54.67;25.42;;;4.40;99.90;;;4.37;67.48;99641.91;5031208;28;20115;-85
2022/01/26 02:56:25;;;;;;;44.55;24.40;;;4.40;99.90;;;4.41;67.41;99641.25;5018780;28;20519;-85
2022/01/26 03:01:51;;;;;;;43.55;20.83;;;4.40;99.90;;;4.37;67.15;99641.91;5022036;28;20051;-85
2022/01/26 03:09:50;;;;;;;37.17;21.55;;;4.40;99.90;;;4.40;66.62;99631.56;5029786;28;20465;-85
2022/01/26 03:12:27;;;;;;;38.38;21.40;;;4.40;99.90;;;4.40;67.29;99636.09;5013183;28;20044;-85
2022/01/26 03:14:58;;;;;;;32.58;19.67;;;4.40;99.90;;;4.37;67.20;99629.28;5018248;28;20044;-85
2022/01/26 03:20:06;;;;;;;35.30;19.63;;;4.40;99.90;;;4.37;67.20;99628.47;5024386;28;20547;-85
2022/01/26 03:35:59;;;;;;;37.90;20.85;;;4.40;99.90;;;4.35;67.00;99628.66;5032919;28;20115;-85
2022/01/26 03:41:02;;;;;;;36.72;18.98;;;4.40;99.90;;;4.45;67.23;99628.22;5013091;28;20073;-85
2022/01/26 03:43:28;;;;;;;37.72;20.52;;;4.40;99.90;;;4.39;66.77;99629.09;5010346;28;20115;-85
2022/01/26 03:45:54;;;;;;;42.15;23.60;;;4.40;99.90;;;4.38;67.47;99625.59;4999847;28;20067;-85
2022/01/26 03:48:19;;;;;;;41.53;20.23;;;4.40;99.90;;;4.38;67.08;99624.75;5027962;28;20037;-85
2022/01/26 03:50:45;;;;;;;46.55;22.70;;;4.50;99.90;;;4.35;67.18;99632.19;5015593;28;20037;-86
2022/01/26 03:53:11;;;;;;;39.58;21.60;;;4.40;99.90;;;4.37;67.29;99625.78;4998170;28;20171;-85
2022/01/26 03:55:37;;;;;;;39.10;22.52;;;4.50;99.90;;;4.34;67.17;99624.34;4998808;28;20488;-85
2022/01/26 03:58:03;;;;;;;39.28;22.35;;;4.40;99.90;;;4.37;67.24;99618.53;5012774;28;20047;-85
2022/01/26 04:00:29;;;;;;;44.20;23.20;;;4.50;99.90;;;4.40;67.63;99619.97;5014478;28;20061;-85
2022/01/26 04:02:55;;;;;;;49.65;24.42;;;4.40;99.90;;;4.41;67.03;99637.75;4998277;28;20503;-85
2022/01/26 04:05:22;;;;;;;50.70;24.50;;;4.40;99.90;;;4.36;67.05;99643.75;5014662;28;20125;-85
2022/01/26 04:07:54;;;;;;;50.33;25.58;;;4.40;99.90;;;4.37;67.70;99645.41;4999197;28;20399;-85
2022/01/26 04:10:41;;;;;;;45.83;24.38;;;4.40;99.90;;;4.39;67.45;99629.91;5004260;28;20119;-85
2022/01/26 04:13:07;;;;;;;51.38;26.80;;;4.40;99.90;;;4.42;67.32;99634.03;5018628;28;20037;-85
2022/01/26 04:15:35;;;;;;;46.42;24.70;;;4.40;99.90;;;4.34;67.15;99629.72;5013564;28;20075;-85
2022/01/26 04:18:05;;;;;;;61.40;27.25;;;4.50;99.90;;;4.32;67.86;99624.53;5032228;28;20515;-85
2022/01/26 04:20:36;;;;;;;54.47;27.73;;;4.40;99.90;;;4.35;67.62;99634.03;5017997;28;20040;-85
2022/01/26 04:23:29;;;;;;;59.20;28.52;;;4.40;99.90;;;4.31;67.65;99622.09;5013435;28;20152;-86
2022/01/26 04:25:56;;;;;;;51.17;27.35;;;4.40;99.90;;;4.30;67.46;99625.78;5009102;28;20124;-86
2022/01/26 04:28:28;;;;;;;47.08;24.67;;;4.40;99.90;;;4.29;67.43;99632.22;5013373;28;20051;-86
2022/01/26 04:30:54;;;;;;;57.10;29.23;;;4.40;99.90;;;4.31;67.83;99627.47;5027327;28;20410;-86
2022/01/26 04:33:20;;;;;;;47.75;26.48;;;4.40;99.90;;;4.33;67.22;99628.91;4997276;28;20494;-86
2022/01/26 04:35:47;;;;;;;48.28;26.10;;;4.40;99.90;;;4.33;67.80;99622.72;4996756;28;20112;-86
2022/01/26 04:38:22;;;;;;;51.70;25.83;;;4.40;99.90;;;4.30;67.40;99623.09;5001044;28;20071;-86
2022/01/26 04:43:22;;;;;;;48.40;26.33;;;4.30;99.90;;;4.28;67.24;99619.84;5033860;28;20056;-86
2022/01/26 04:45:48;;;;;;;52.85;25.63;;;4.30;99.90;;;4.27;67.21;99628.91;5003714;28;20040;-86
2022/01/26 04:48:14;;;;;;;53.55;27.70;;;4.40;99.90;;;4.28;67.66;99615.28;4996896;28;20116;-86
2022/01/26 04:50:40;;;;;;;49.47;24.95;;;4.40;99.90;;;4.26;67.37;99629.97;4998667;28;20047;-86
2022/01/26 04:53:06;;;;;;;44.35;24.30;;;4.30;99.90;;;4.22;67.38;99626.03;5001414;28;20057;-86
2022/01/26 04:55:32;;;;;;;52.45;27.38;;;4.30;99.90;;;4.23;67.34;99614.28;5006046;28;20427;-86
2022/01/26 04:57:58;;;;;;;50.78;24.67;;;4.30;99.90;;;4.27;67.17;99623.53;5012684;28;20135;-86
2022/01/26 05:00:24;;;;;;;52.58;26.65;;;4.30;99.90;;;4.25;67.30;99615.72;5003153;28;20041;-86
2022/01/26 05:02:50;;;;;;;48.67;28.83;;;4.30;99.90;;;4.24;67.44;99627.47;5016744;28;20120;-86
2022/01/26 05:05:16;;;;;;;46.08;24.90;;;4.30;99.90;;;4.24;67.63;99622.09;5034640;28;20798;-86
2022/01/26 05:07:43;;;;;;;48.20;26.73;;;4.30;99.90;;;4.30;67.52;99615.06;5001213;28;20029;-86
2022/01/26 05:10:10;;;;;;;50.40;26.52;;;4.30;99.90;;;4.30;67.29;99617.75;5015162;28;20474;-86
2022/01/26 05:12:36;;;;;;;58.08;28.42;;;4.30;99.90;;;4.29;67.51;99603.50;5015047;28;20136;-86
2022/01/26 05:15:03;;;;;;;51.15;26.65;;;4.30;99.90;;;4.31;67.64;99612.16;5022901;28;20041;-86
2022/01/26 05:17:29;;;;;;;51.42;27.95;;;4.40;99.90;;;4.36;67.72;99614.22;5001550;28;20120;-86
2022/01/26 05:19:58;;;;;;;47.53;25.70;;;4.40;99.90;;;4.33;67.25;99611.97;5004437;28;20033;-86
2022/01/26 05:22:23;;;;;;;44.90;25.17;;;4.40;99.90;;;4.31;67.94;99608.66;5007214;28;20033;-86
2022/01/26 05:24:50;;;;;;;53.83;28.63;;;4.40;99.90;;;4.34;67.37;99592.94;5012503;28;20523;-85
2022/01/26 05:27:15;;;;;;;57.33;29.05;;;4.40;99.90;;;4.37;67.38;99604.28;5006481;28;20131;-86
2022/01/26 05:29:42;;;;;;;54.05;26.38;;;4.40;99.90;;;4.38;67.75;99593.34;5021508;28;20108;-86
2022/01/26 05:32:08;;;;;;;60.38;30.15;;;4.40;99.90;;;4.44;67.09;99600.53;5022177;28;20403;-83
2022/01/26 05:34:33;;;;;;;55.63;28.77;;;4.40;99.90;;;4.49;67.53;99600.72;5032115;28;20124;-82
2022/01/26 05:36:59;;;;;;;48.13;25.52;;;4.50;99.90;;;4.51;67.09;99593.28;5036315;28;20064;-82
2022/01/26 05:39:25;;;;;;;49.42;24.80;;;4.50;99.90;;;4.51;67.28;99601.34;5001899;28;20037;-82
2022/01/26 05:41:51;;;;;;;48.78;26.15;;;4.60;99.90;;;4.55;66.88;99596.34;5018750;28;20041;-82
2022/01/26 05:44:17;;;;;;;44.90;24.75;;;4.50;99.90;;;4.53;66.89;99590.38;5021986;28;20127;-82
2022/01/26 05:46:49;;;;;;;35.42;20.45;;;4.60;99.90;;;4.49;66.67;99592.66;5002681;28;20130;-82
2022/01/26 05:49:17;;;;;;;;;;;4.60;99.90;;;4.38;66.99;99589.84;5020228;28;20064;-82
2022/01/26 05:51:46;;;;;;;35.75;19.65;;;4.60;99.90;;;4.36;66.43;99590.03;5049920;28;19920;-82
2022/01/26 05:54:15;;;;;;;34.50;20.08;;;4.50;99.90;;;4.30;66.99;99590.88;5004288;28;20067;-81
2022/01/26 05:56:42;;;;;;;28.15;17.00;;;4.40;99.90;;;4.26;67.11;99589.69;5050945;28;20515;-81
2022/01/26 05:59:09;;;;;;;36.70;20.13;;;4.40;99.90;;;4.26;67.18;99593.19;5029765;28;20041;-82
2022/01/26 06:01:35;;;;;;;36.63;20.02;;;4.40;99.90;;;4.21;66.83;99586.81;5018921;28;20125;-82
2022/01/26 06:04:04;;;;;;;33.55;19.92;;;4.40;99.90;;;4.18;67.41;99600.66;5016661;28;20041;-82
2022/01/26 06:06:31;;;;;;;33.97;19.88;;;4.30;99.90;;;4.14;67.80;99594.88;5032621;28;20037;-82
2022/01/26 06:08:57;;;;;;;34.00;20.92;;;4.30;99.90;;;4.23;67.17;99582.06;5036352;28;20116;-82
2022/01/26 06:11:23;;;;;;;37.55;22.13;;;4.30;99.90;;;4.32;67.28;99586.13;5015639;28;20492;-83
2022/01/26 06:13:48;;;;;;;36.72;22.25;;;4.30;99.90;;;4.28;66.84;99592.97;5020277;28;20038;-82
2022/01/26 06:16:16;;;;;;;45.10;23.40;;;4.40;99.90;;;4.28;67.14;99590.28;5017843;28;20065;-82
2022/01/26 06:18:43;;;;;;;44.78;23.30;;;4.40;99.90;;;4.33;67.15;99588.59;5003790;28;20053;-82
2022/01/26 06:21:10;;;;;;;48.67;26.67;;;4.40;99.90;;;4.30;67.24;99582.81;5019824;28;20041;-82
2022/01/26 06:23:36;;;;;;;51.10;27.23;;;4.40;99.90;;;4.25;67.20;99596.06;5015362;28;20049;-82
2022/01/26 06:26:02;;;;;;;57.25;28.23;;;4.40;99.90;;;4.25;67.02;99590.69;5013579;28;20048;-82
2022/01/26 06:28:28;;;;;;;48.38;27.05;;;4.40;99.90;;;4.21;67.69;99587.63;5015512;28;20473;-81
2022/01/26 06:31:00;;;;;;;58.67;28.30;;;4.30;99.90;;;4.19;67.29;99578.94;5034099;28;20041;-82
2022/01/26 06:33:27;;;;;;;61.13;30.40;;;4.30;99.90;;;4.22;67.63;99577.69;5014622;28;20492;-82
2022/01/26 06:35:53;;;;;;;64.05;30.85;;;4.30;99.90;;;4.30;67.22;99575.63;5015265;28;20045;-82
2022/01/26 06:38:19;;;;;;;61.05;30.50;;;4.30;99.90;;;4.28;67.79;99576.88;5026327;28;20484;-82
2022/01/26 06:40:45;;;;;;;56.45;29.10;;;4.40;99.90;;;4.29;67.18;99584.69;5016661;28;20042;-82
2022/01/26 06:43:14;;;;;;;57.03;29.73;;;4.40;99.90;;;4.35;67.58;99574.94;5030030;28;20617;-81
2022/01/26 06:46:02;;;;;;;61.05;29.67;;;4.40;99.90;;;4.30;67.06;99581.00;5028053;28;20485;-80
2022/01/26 06:50:58;;;;;;;66.07;33.53;;;4.40;99.90;;;4.31;67.91;99579.13;5019832;28;20159;-81
2022/01/26 06:53:24;;;;;;;55.90;28.90;;;4.40;99.90;;;4.41;67.78;99578.66;5031349;28;20045;-82
2022/01/26 06:55:50;;;;;;;48.20;25.23;;;4.40;99.90;;;4.48;67.33;99580.28;5046254;28;20504;-81
2022/01/26 06:58:17;;;;;;;46.08;25.95;;;4.50;99.90;;;4.55;67.06;99588.28;5032282;28;20436;-82
2022/01/26 07:00:43;;;;;;;44.05;23.23;;;4.50;99.90;;;4.55;66.94;99589.13;5013582;28;20076;-81
2022/01/26 07:03:09;;;;;;;32.42;20.50;;;4.60;99.90;;;4.48;66.75;99584.84;5004274;28;20505;-81
2022/01/26 07:05:35;;;;;;;38.75;21.88;;;4.60;99.90;;;4.50;66.87;99582.72;5029060;28;20045;-81
2022/01/26 07:08:04;;;;;;;39.58;22.77;;;4.60;99.90;;;4.54;67.09;99582.09;4999057;28;20118;-81
2022/01/26 07:10:33;;;;;;;41.45;23.00;;;4.60;99.90;;;4.62;66.21;99580.19;5024677;28;20401;-82
2022/01/26 07:13:01;;;;;;;45.33;23.02;;;4.70;99.90;;;4.68;66.78;99582.84;5014236;28;20033;-81
2022/01/26 07:23:29;;;;;;;49.75;26.83;;;4.80;99.90;;;4.72;66.22;99580.56;5030071;28;20225;-83
2022/01/26 07:25:55;;;;;;;40.30;22.85;;;4.80;99.90;;;4.74;66.02;99570.41;5028311;28;20060;-82
2022/01/26 07:28:21;;;;;;;47.97;27.08;;;4.80;99.90;;;4.75;65.99;99569.34;4997381;28;20105;-82
2022/01/26 07:30:47;;;;;;;56.38;27.75;;;4.80;99.90;;;4.75;66.08;99575.56;5012188;28;20400;-82
2022/01/26 07:33:13;;;;;;;50.45;27.35;;;4.80;99.90;;;4.71;66.40;99570.84;5029361;28;20040;-81
2022/01/26 07:35:39;;;;;;;48.10;26.92;;;4.90;99.90;;;4.75;66.70;99577.41;5018171;28;20069;-81
2022/01/26 07:38:05;;;;;;;55.92;27.48;;;4.90;99.90;;;4.86;66.44;99579.44;5017891;28;20076;-81
2022/01/26 07:40:31;;;;;;;53.88;29.83;;;4.90;99.90;;;4.88;65.92;99582.69;5016467;28;20119;-81
2022/01/26 07:42:57;;;;;;;52.53;28.98;;;4.90;99.90;;;4.88;65.65;99577.34;5033204;28;20364;-81
2022/01/26 07:45:23;;;;;;;53.13;28.83;;;4.90;99.90;;;4.93;65.65;99582.88;5032285;28;20511;-81
2022/01/26 07:47:52;;;;;;;49.92;26.95;;;4.90;99.90;;;4.95;65.78;99583.50;5051963;28;20037;-81
2022/01/26 07:50:20;;;;;;;49.22;24.70;;;5.00;99.90;;;4.94;65.47;99581.84;5020293;28;20451;-81
2022/01/26 07:52:46;;;;;;;46.00;26.33;;;5.10;99.90;;;5.01;65.20;99581.78;5035853;28;20100;-81
2022/01/26 07:55:16;;;;;;;47.15;25.88;;;5.10;99.90;;;5.00;65.62;99570.22;5028754;28;20048;-82
2022/01/26 07:57:45;;;;;;;54.67;28.80;;;5.10;99.90;;;5.03;65.24;99586.97;5035378;28;20506;-81
2022/01/26 08:00:12;;;;;;;50.17;28.58;;;5.10;99.90;;;5.11;65.10;99578.63;5019408;28;20102;-81
2022/01/26 08:02:38;;;;;;;57.80;27.98;;;5.20;99.90;;;5.04;64.91;99580.53;5004449;28;20055;-81
2022/01/26 08:05:04;;;;;;;44.80;26.15;;;5.20;99.90;;;5.11;65.02;99575.94;5032893;28;20040;-81
2022/01/26 08:07:30;;;;;;;49.75;27.33;;;5.20;99.90;;;5.08;64.56;99579.88;5020678;28;20036;-81
2022/01/26 08:09:56;;;;;;;49.97;27.27;;;5.20;99.90;;;5.12;64.74;99577.59;5035452;28;20547;-81
2022/01/26 08:12:22;;;;;;;50.10;28.00;;;5.20;99.90;;;5.27;64.49;99574.59;5014065;28;20094;-82
2022/01/26 08:14:48;;;;;;;59.55;31.17;;;5.30;99.90;;;5.27;64.44;99574.59;5015669;28;20480;-82
2022/01/26 08:17:15;;;;;;;58.60;30.50;;;5.40;99.90;;;5.32;64.33;99572.06;5020977;28;20107;-81
2022/01/26 08:19:41;;;;;;;56.65;31.35;;;5.40;99.90;;;5.32;64.02;99569.38;5018240;28;20128;-81
2022/01/26 08:22:08;;;;;;;61.95;32.58;;;5.50;99.90;;;5.34;63.95;99573.47;5022392;28;20488;-81
2022/01/26 08:24:34;;;;;;;56.97;29.08;;;5.50;99.90;;;5.24;64.01;99575.84;5015753;28;20163;-81
2022/01/26 08:27:07;;;;;;;58.88;29.98;;;5.50;99.90;;;5.23;64.14;99574.19;5010096;28;20049;-81
2022/01/26 08:29:40;;;;;;;60.90;32.78;;;5.50;99.90;;;5.23;64.45;99574.19;5029206;28;20041;-81
2022/01/26 08:32:07;;;;;;;61.78;30.52;;;5.40;99.90;;;5.37;64.58;99583.78;5014612;28;20393;-81
2022/01/26 08:34:33;;;;;;;64.65;32.78;;;5.50;99.90;;;5.54;64.09;99583.22;4993904;28;20143;-81
2022/01/26 08:36:59;;;;;;;54.22;30.20;;;5.60;99.90;;;5.63;63.67;99580.03;4994690;28;20387;-81
2022/01/26 08:39:25;;;;;;;51.85;28.58;;;5.70;99.90;;;5.60;63.54;99585.88;5019446;28;20045;-81
2022/01/26 08:41:50;;;;;;;46.17;26.95;;;5.80;99.90;;;5.58;63.48;99582.56;5015184;28;20048;-81
2022/01/26 08:44:17;;;;;;;51.97;27.50;;;5.80;99.90;;;5.57;63.17;99580.09;5047783;28;20124;-81
2022/01/26 08:46:43;;;;;;;49.50;28.38;;;5.80;99.90;;;5.56;63.23;99581.94;5014716;28;20068;-81
2022/01/26 08:49:09;;;;;;;52.45;27.17;;;5.80;99.90;;;5.54;63.69;99588.59;4998349;28;20041;-81
2022/01/26 08:51:35;;;;;;;50.47;26.35;;;5.80;99.90;;;5.60;63.40;99585.03;5048917;28;20040;-81
2022/01/26 08:54:01;;;;;;;45.58;25.52;;;5.80;99.90;;;5.72;63.29;99583.25;5015463;28;20041;-81
2022/01/26 08:56:27;;;;;;;50.83;27.10;;;5.80;99.90;;;5.86;63.33;99583.94;5030796;28;20124;-81
2022/01/26 08:58:54;;;;;;;50.78;27.80;;;6.00;99.90;;;6.01;62.69;99586.31;5000314;28;20533;-81
2022/01/26 09:01:20;;;;;;;48.80;27.80;;;6.10;99.90;;;6.14;62.57;99591.53;5031244;28;20049;-81
2022/01/26 09:03:46;;;;;;;48.88;25.92;;;6.30;99.90;;;6.39;61.94;99586.03;4998547;28;20162;-81
2022/01/26 09:06:12;;;;;;;47.50;26.63;;;6.50;99.90;;;6.57;61.17;99585.19;5025963;28;20133;-81
2022/01/26 09:08:40;;;;;;;54.05;29.88;;;6.70;99.90;;;6.83;60.48;99583.97;4994974;28;20456;-81
2022/01/26 09:11:07;;;;;;;56.22;31.05;;;7.00;99.90;;;6.85;60.07;99586.47;5013958;28;20116;-83
2022/01/26 09:13:34;;;;;;;54.67;30.00;;;7.20;99.90;;;6.95;60.35;99590.25;5013722;28;20045;-83
2022/01/26 09:16:04;;;;;;;51.10;28.17;;;7.30;99.90;;;7.06;60.12;99590.50;5026516;28;20043;-83
2022/01/26 09:18:38;;;;;;;57.88;31.60;;;7.40;99.90;;;7.00;59.37;99586.84;5012342;28;20069;-83
2022/01/26 09:21:05;;;;;;;53.28;29.88;;;7.40;99.90;;;6.92;59.45;99597.94;5034440;28;20045;-83
2022/01/26 09:23:31;;;;;;;62.53;32.35;;;7.30;99.90;;;6.82;60.00;99597.69;5049234;28;20506;-81
2022/01/26 09:25:57;;;;;;;57.20;29.45;;;7.20;99.90;;;6.91;59.48;99597.13;5016908;28;20156;-82
2022/01/26 09:28:24;;;;;;;62.50;32.58;;;7.20;99.90;;;6.97;59.20;99595.38;5016544;28;20644;-82
2022/01/26 09:30:52;;;;;;;58.28;30.65;;;7.30;99.90;;;6.99;59.64;99597.88;5034199;28;20056;-81
2022/01/26 09:33:19;;;;;;;57.00;31.83;;;7.30;99.90;;;6.98;59.37;99597.06;5028905;28;20056;-81
2022/01/26 09:35:45;;;;;;;57.30;31.40;;;7.30;99.90;;;7.04;59.30;99589.91;5007721;28;20052;-81
2022/01/26 09:38:11;;;;;;;60.50;32.05;;;7.30;99.90;;;7.10;59.48;99594.38;5030256;28;20488;-82
2022/01/26 09:40:38;;;;;;;61.58;31.10;;;7.40;99.90;;;7.06;59.01;99594.00;5017343;28;20037;-82
2022/01/26 09:43:04;;;;;;;54.05;28.95;;;7.40;99.90;;;7.00;59.00;99594.94;5033145;28;20191;-82
2022/01/26 09:45:34;;;;;;;67.15;34.13;;;7.40;99.90;;;7.00;59.32;99594.94;5001477;28;20528;-82
2022/01/26 09:48:04;;;;;;;60.03;32.60;;;7.40;99.90;;;7.02;59.44;99595.53;5003185;28;20041;-82
2022/01/26 09:50:30;;;;;;;70.25;38.63;;;7.30;99.90;;;7.08;59.30;99597.31;5048031;28;20037;-82
2022/01/26 09:52:57;;;;;;;75.35;38.70;;;7.30;99.90;;;7.08;59.18;99596.50;5032423;28;20116;-82
2022/01/26 09:55:23;;;;;;;78.70;38.53;;;7.40;99.90;;;7.03;59.49;99589.09;5017175;28;20454;-82
2022/01/26 09:57:49;;;;;;;74.18;37.50;;;7.40;99.90;;;7.07;58.77;99592.97;5051716;28;20179;-82
2022/01/26 10:00:16;;;;;;;78.65;38.10;;;7.40;99.90;;;7.02;59.08;99586.59;5016593;28;20510;-82
2022/01/26 10:02:46;;;;;;;57.10;32.72;;;7.30;99.90;;;6.95;59.28;99590.25;5032538;28;20033;-81
2022/01/26 10:05:16;;;;;;;52.70;30.73;;;7.30;99.90;;;6.82;59.34;99593.13;5034376;28;20051;-81
2022/01/26 10:08:11;;;;;;;55.97;28.33;;;7.20;99.90;;;6.60;60.08;99592.81;5033973;28;20253;-81
2022/01/26 10:18:33;;;;;;;66.68;32.85;;;6.80;99.90;;;6.62;60.57;99571.84;5020952;28;20110;-82
2022/01/26 10:21:01;;;;;;;67.75;33.90;;;6.90;99.90;;;6.60;60.97;99571.25;5040838;28;20045;-82
2022/01/26 10:23:41;;;;;;;68.25;34.88;;;6.80;99.90;;;6.67;60.40;99571.97;5026419;28;20522;-82
2022/01/26 10:26:14;;;;;;;69.00;35.33;;;6.90;99.90;;;6.74;60.57;99564.63;5022044;28;20076;-82
2022/01/26 10:28:52;;;;;;;67.18;33.70;;;6.90;99.90;;;6.69;60.54;99571.72;5053677;28;20112;-82
2022/01/26 10:31:29;;;;;;;68.38;32.10;;;7.00;99.90;;;6.71;60.36;99569.63;5038769;28;20041;-82
2022/01/26 10:34:04;;;;;;;58.47;30.75;;;7.00;99.90;;;6.72;60.69;99557.81;5038773;28;20045;-82
2022/01/26 10:36:37;;;;;;;57.80;30.58;;;7.00;99.90;;;6.68;60.64;99560.13;5036986;28;20072;-82
2022/01/26 10:39:22;;;;;;;63.88;32.35;;;7.00;99.90;;;6.71;60.60;99562.38;5055095;28;20116;-83
2022/01/26 10:41:51;;;;;;;62.42;32.58;;;7.00;99.90;;;6.81;60.54;99563.69;5022428;28;20489;-83
2022/01/26 10:44:34;;;;;;;65.75;31.90;;;7.00;99.90;;;6.78;60.49;99559.59;5020879;28;20041;-82
2022/01/26 10:47:03;;;;;;;65.50;32.03;;;7.00;99.90;;;6.71;60.73;99558.84;5011956;28;20040;-82
2022/01/26 10:52:27;;;;;;;72.10;35.70;;;6.90;99.90;;;6.40;61.35;99547.25;5048030;28;20045;-83
2022/01/26 10:54:54;;;;;;;59.03;29.73;;;6.80;99.90;;;6.38;61.38;99545.84;5016529;28;20055;-81
2022/01/26 10:57:20;;;;;;;63.47;33.88;;;6.70;99.90;;;6.45;61.17;99538.50;4998130;28;20068;-81
2022/01/26 10:59:47;;;;;;;61.17;32.72;;;6.60;99.90;;;6.51;61.56;99537.56;5014100;28;20104;-81
2022/01/26 11:02:14;;;;;;;72.20;35.10;;;6.60;99.90;;;6.49;61.14;99528.91;5017945;28;20056;-81
2022/01/26 11:04:43;;;;;;;65.90;32.72;;;6.70;99.90;;;6.39;61.79;99540.22;5030473;28;20457;-82
2022/01/26 11:07:13;;;;;;;60.38;32.80;;;6.70;99.90;;;6.48;61.77;99533.47;5032217;28;20411;-81
2022/01/26 11:09:47;;;;;;;57.03;32.05;;;6.70;99.90;;;6.52;61.36;99539.22;5012863;28;20468;-81
2022/01/26 11:12:27;;;;;;;62.75;30.75;;;6.70;99.90;;;6.43;61.69;99535.19;5028943;28;20414;-81
2022/01/26 11:15:03;;;;;;;62.90;31.63;;;6.70;99.90;;;6.41;61.63;99535.44;5016420;28;20094;-82
2022/01/26 11:17:36;;;;;;;63.00;31.17;;;6.70;99.90;;;6.49;61.89;99534.31;5033171;28;20091;-85
2022/01/26 11:20:31;;;;;;;62.33;27.80;;;6.70;99.90;;;6.52;61.46;99525.75;5031590;28;20041;-85
2022/01/26 11:22:59;;;;;;;59.95;30.13;;;6.80;99.90;;;6.63;61.15;99524.13;5020058;28;20053;-84
2022/01/26 11:25:27;;;;;;;60.53;31.08;;;6.80;99.90;;;6.57;61.81;99525.88;5021018;28;20037;-84
2022/01/26 11:27:54;;;;;;;48.35;26.52;;;6.80;99.90;;;6.57;61.73;99520.50;5030617;28;20130;-83
2022/01/26 11:30:32;;;;;;;49.80;26.30;;;6.90;99.90;;;6.56;61.58;99524.22;5039596;28;20456;-83
2022/01/26 11:33:03;;;;;;;55.42;26.73;;;6.80;99.90;;;6.53;61.75;99520.13;5026881;28;20043;-83
2022/01/26 11:35:32;;;;;;;;;;;6.90;99.90;;;6.45;61.83;99508.84;5022302;28;20426;-83
2022/01/26 11:47:29;;;;;;;46.30;25.83;;;7.00;99.90;;;6.90;60.29;99508.38;5042266;28;20041;-83
2022/01/26 11:50:12;;;;;;;51.35;27.10;;;7.10;99.90;;;6.95;59.95;99506.63;5025375;28;20375;-83
2022/01/26 11:52:39;;;;;;;46.78;25.40;;;7.20;99.90;;;7.06;60.19;99498.78;5044434;28;20095;-83
2022/01/26 11:55:25;;;;;;;47.28;27.23;;;7.20;99.90;;;7.10;59.20;99497.28;5017533;28;20041;-83
2022/01/26 11:57:53;;;;;;;47.33;26.42;;;7.30;99.90;;;7.15;59.18;99500.91;5052544;28;20408;-85
2022/01/26 12:01:25;;;;;;;53.05;27.60;;;7.40;99.90;;;7.15;58.89;99494.69;5011992;28;20045;-84
2022/01/26 12:03:31;;;;;;;53.10;27.77;;;7.40;99.90;;;7.22;59.16;99505.34;5028294;28;20059;-85
2022/01/26 12:05:58;;;;;;;60.50;30.80;;;7.40;99.90;;;7.10;59.35;99492.69;5010521;28;20044;-85
2022/01/26 12:08:37;;;;;;;47.47;25.95;;;7.40;99.90;;;6.94;59.67;99487.97;5015260;28;20230;-84
2022/01/26 12:11:05;;;;;;;47.22;24.25;;;7.40;99.90;;;6.87;59.25;99498.03;5000692;28;20041;-85
2022/01/26 12:13:32;;;;;;;48.92;26.02;;;7.20;99.90;;;6.83;60.10;99497.69;5011424;28;20053;-85
2022/01/26 12:16:08;;;;;;;46.10;26.65;;;7.10;99.90;;;6.91;60.41;99497.34;5013319;28;20051;-85
2022/01/26 12:18:40;;;;;;;45.60;23.60;;;7.20;99.90;;;6.86;59.71;99497.22;5001317;28;20467;-85
2022/01/26 12:43:43;;;;;;;48.20;26.30;;;7.00;99.90;;;6.71;60.41;99481.47;5032020;28;20064;-81
2022/01/26 12:46:19;;;;;;;42.08;24.45;;;6.90;99.90;;;6.67;60.48;99477.63;5044430;28;20063;-81
2022/01/26 12:48:55;;;;;;;38.40;22.80;;;6.90;99.90;;;6.52;60.93;99469.97;5012783;28;20110;-81
2022/01/26 12:51:26;;;;;;;37.05;22.20;;;6.90;99.90;;;6.59;61.02;99469.88;5031645;28;20059;-81
2022/01/26 12:53:55;;;;;;;36.95;21.35;;;6.90;99.90;;;6.71;60.56;99459.91;5061626;28;20090;-81